sensor_id;sensor_type;location;lat;lon;timestamp;P1;durP1;ratioP1;P2;durP2;ratioP2
15616;SDS011;7908;51.688;7.130;2023-07-20T00:01:17;7.83;;;7.10;;
15616;SDS011;7908;51.688;7.130;2023-07-20T00:03:46;8.67;;;6.97;;
15616;SDS011;7908;51.688;7.130;2023-07-20T00:06:21;8.63;;;6.63;;
15616;SDS011;7908;51.688;7.130;2023-07-20T00:08:53;9.23;;;7.23;;
15616;SDS011;7908;51.688;7.130;2023-07-20T00:11:26;8.57;;;7.20;;
15616;SDS011;7908;51.688;7.130;2023-07-20T00:13:55;7.33;;;6.60;;
15616;SDS011;7908;51.688;7.130;2023-07-20T00:16:25;8.80;;;7.70;;
15616;SDS011;7908;51.688;7.130;2023-07-20T00:18:54;9.80;;;6.90;;
15616;SDS011;7908;51.688;7.130;2023-07-20T00:21:23;8.27;;;7.13;;
15616;SDS011;7908;51.688;7.130;2023-07-20T00:23:55;8.10;;;7.17;;
15616;SDS011;7908;51.688;7.130;2023-07-20T00:26:24;8.00;;;7.20;;
15616;SDS011;7908;51.688;7.130;2023-07-20T00:28:53;7.53;;;6.83;;
15616;SDS011;7908;51.688;7.130;2023-07-20T00:31:22;7.10;;;5.77;;
15616;SDS011;7908;51.688;7.130;2023-07-20T00:33:51;7.37;;;6.50;;
15616;SDS011;7908;51.688;7.130;2023-07-20T00:36:20;7.33;;;6.63;;
15616;SDS011;7908;51.688;7.130;2023-07-20T00:38:50;8.23;;;6.77;;
15616;SDS011;7908;51.688;7.130;2023-07-20T00:41:21;9.27;;;6.97;;
15616;SDS011;7908;51.688;7.130;2023-07-20T00:43:50;8.23;;;6.03;;
15616;SDS011;7908;51.688;7.130;2023-07-20T00:46:20;7.40;;;6.43;;
15616;SDS011;7908;51.688;7.130;2023-07-20T00:48:52;6.60;;;5.60;;
15616;SDS011;7908;51.688;7.130;2023-07-20T00:51:21;7.50;;;6.00;;
15616;SDS011;7908;51.688;7.130;2023-07-20T00:53:52;9.23;;;6.03;;
15616;SDS011;7908;51.688;7.130;2023-07-20T00:56:23;9.63;;;6.53;;
15616;SDS011;7908;51.688;7.130;2023-07-20T00:58:52;8.00;;;6.43;;
15616;SDS011;7908;51.688;7.130;2023-07-20T01:01:21;7.00;;;6.30;;
15616;SDS011;7908;51.688;7.130;2023-07-20T01:03:50;6.90;;;6.03;;
15616;SDS011;7908;51.688;7.130;2023-07-20T01:06:23;6.87;;;5.77;;
15616;SDS011;7908;51.688;7.130;2023-07-20T01:09:01;10.50;;;7.17;;
15616;SDS011;7908;51.688;7.130;2023-07-20T01:11:42;7.37;;;6.50;;
15616;SDS011;7908;51.688;7.130;2023-07-20T01:14:17;9.37;;;6.53;;
15616;SDS011;7908;51.688;7.130;2023-07-20T01:16:47;8.27;;;6.23;;
15616;SDS011;7908;51.688;7.130;2023-07-20T01:19:16;6.60;;;5.90;;
15616;SDS011;7908;51.688;7.130;2023-07-20T01:21:45;7.77;;;6.40;;
15616;SDS011;7908;51.688;7.130;2023-07-20T01:24:34;11.13;;;7.10;;
15616;SDS011;7908;51.688;7.130;2023-07-20T01:27:25;7.80;;;6.77;;
15616;SDS011;7908;51.688;7.130;2023-07-20T01:33:25;8.60;;;7.70;;
15616;SDS011;7908;51.688;7.130;2023-07-20T01:35:56;9.53;;;7.97;;
15616;SDS011;7908;51.688;7.130;2023-07-20T01:38:27;9.77;;;7.77;;
15616;SDS011;7908;51.688;7.130;2023-07-20T01:40:57;10.63;;;8.50;;
15616;SDS011;7908;51.688;7.130;2023-07-20T01:43:25;9.77;;;8.50;;
15616;SDS011;7908;51.688;7.130;2023-07-20T01:45:54;9.47;;;8.53;;
15616;SDS011;7908;51.688;7.130;2023-07-20T01:48:24;14.87;;;10.30;;
15616;SDS011;7908;51.688;7.130;2023-07-20T01:50:53;14.63;;;10.33;;
15616;SDS011;7908;51.688;7.130;2023-07-20T01:53:22;16.83;;;11.87;;
15616;SDS011;7908;51.688;7.130;2023-07-20T01:55:52;15.80;;;12.47;;
15616;SDS011;7908;51.688;7.130;2023-07-20T01:58:22;14.67;;;11.27;;
15616;SDS011;7908;51.688;7.130;2023-07-20T02:00:51;14.47;;;12.40;;
15616;SDS011;7908;51.688;7.130;2023-07-20T02:03:21;16.67;;;12.97;;
15616;SDS011;7908;51.688;7.130;2023-07-20T02:05:53;18.13;;;14.73;;
15616;SDS011;7908;51.688;7.130;2023-07-20T02:08:23;18.73;;;15.30;;
15616;SDS011;7908;51.688;7.130;2023-07-20T02:10:52;18.07;;;14.33;;
15616;SDS011;7908;51.688;7.130;2023-07-20T02:13:20;17.03;;;13.77;;
15616;SDS011;7908;51.688;7.130;2023-07-20T02:15:49;18.17;;;14.97;;
15616;SDS011;7908;51.688;7.130;2023-07-20T02:18:18;18.03;;;14.97;;
15616;SDS011;7908;51.688;7.130;2023-07-20T02:20:46;19.07;;;14.97;;
15616;SDS011;7908;51.688;7.130;2023-07-20T02:23:16;19.13;;;14.63;;
15616;SDS011;7908;51.688;7.130;2023-07-20T02:25:45;18.83;;;16.00;;
15616;SDS011;7908;51.688;7.130;2023-07-20T02:28:14;22.90;;;17.53;;
15616;SDS011;7908;51.688;7.130;2023-07-20T02:30:43;22.53;;;17.17;;
15616;SDS011;7908;51.688;7.130;2023-07-20T02:33:13;21.80;;;17.57;;
15616;SDS011;7908;51.688;7.130;2023-07-20T02:35:41;22.13;;;17.77;;
15616;SDS011;7908;51.688;7.130;2023-07-20T02:38:10;22.43;;;18.20;;
15616;SDS011;7908;51.688;7.130;2023-07-20T02:40:40;22.67;;;18.37;;
15616;SDS011;7908;51.688;7.130;2023-07-20T02:43:09;21.93;;;17.53;;
15616;SDS011;7908;51.688;7.130;2023-07-20T02:45:40;25.43;;;18.30;;
15616;SDS011;7908;51.688;7.130;2023-07-20T02:48:09;23.33;;;18.50;;
15616;SDS011;7908;51.688;7.130;2023-07-20T02:50:38;26.30;;;20.40;;
15616;SDS011;7908;51.688;7.130;2023-07-20T02:53:06;24.93;;;18.40;;
15616;SDS011;7908;51.688;7.130;2023-07-20T02:55:38;26.33;;;18.90;;
15616;SDS011;7908;51.688;7.130;2023-07-20T02:58:08;24.40;;;19.83;;
15616;SDS011;7908;51.688;7.130;2023-07-20T03:00:37;25.53;;;19.77;;
15616;SDS011;7908;51.688;7.130;2023-07-20T03:03:06;25.23;;;20.17;;
15616;SDS011;7908;51.688;7.130;2023-07-20T03:05:36;26.67;;;20.87;;
15616;SDS011;7908;51.688;7.130;2023-07-20T03:08:08;26.20;;;20.27;;
15616;SDS011;7908;51.688;7.130;2023-07-20T03:10:41;31.80;;;20.87;;
15616;SDS011;7908;51.688;7.130;2023-07-20T03:13:10;24.47;;;19.63;;
15616;SDS011;7908;51.688;7.130;2023-07-20T03:15:39;23.33;;;20.00;;
15616;SDS011;7908;51.688;7.130;2023-07-20T03:18:08;31.13;;;21.90;;
15616;SDS011;7908;51.688;7.130;2023-07-20T03:20:37;25.57;;;19.87;;
15616;SDS011;7908;51.688;7.130;2023-07-20T03:23:06;25.37;;;21.17;;
15616;SDS011;7908;51.688;7.130;2023-07-20T03:25:34;23.97;;;19.67;;
15616;SDS011;7908;51.688;7.130;2023-07-20T03:28:05;27.20;;;20.80;;
15616;SDS011;7908;51.688;7.130;2023-07-20T03:30:34;25.10;;;19.37;;
15616;SDS011;7908;51.688;7.130;2023-07-20T03:33:03;31.03;;;21.97;;
15616;SDS011;7908;51.688;7.130;2023-07-20T03:35:31;24.07;;;20.17;;
15616;SDS011;7908;51.688;7.130;2023-07-20T03:38:00;29.40;;;20.77;;
15616;SDS011;7908;51.688;7.130;2023-07-20T03:40:29;26.97;;;20.57;;
15616;SDS011;7908;51.688;7.130;2023-07-20T03:42:58;24.00;;;20.20;;
15616;SDS011;7908;51.688;7.130;2023-07-20T03:45:28;23.67;;;20.77;;
15616;SDS011;7908;51.688;7.130;2023-07-20T03:47:56;28.20;;;23.63;;
15616;SDS011;7908;51.688;7.130;2023-07-20T03:50:25;27.30;;;21.57;;
15616;SDS011;7908;51.688;7.130;2023-07-20T03:52:54;27.47;;;21.53;;
15616;SDS011;7908;51.688;7.130;2023-07-20T03:55:23;28.90;;;23.30;;
15616;SDS011;7908;51.688;7.130;2023-07-20T03:57:51;29.37;;;22.60;;
15616;SDS011;7908;51.688;7.130;2023-07-20T04:00:20;31.20;;;23.97;;
15616;SDS011;7908;51.688;7.130;2023-07-20T04:02:51;30.50;;;24.00;;
15616;SDS011;7908;51.688;7.130;2023-07-20T04:05:20;31.40;;;24.13;;
15616;SDS011;7908;51.688;7.130;2023-07-20T04:07:49;26.23;;;21.03;;
15616;SDS011;7908;51.688;7.130;2023-07-20T04:10:18;28.27;;;22.27;;
15616;SDS011;7908;51.688;7.130;2023-07-20T04:12:47;30.10;;;23.23;;
15616;SDS011;7908;51.688;7.130;2023-07-20T04:15:16;32.63;;;24.13;;
15616;SDS011;7908;51.688;7.130;2023-07-20T04:17:45;25.20;;;21.73;;
15616;SDS011;7908;51.688;7.130;2023-07-20T04:20:15;24.37;;;20.57;;
15616;SDS011;7908;51.688;7.130;2023-07-20T04:22:45;26.23;;;20.63;;
15616;SDS011;7908;51.688;7.130;2023-07-20T04:25:14;25.80;;;21.40;;
15616;SDS011;7908;51.688;7.130;2023-07-20T04:27:43;29.10;;;21.93;;
15616;SDS011;7908;51.688;7.130;2023-07-20T04:30:12;28.50;;;22.97;;
15616;SDS011;7908;51.688;7.130;2023-07-20T04:32:42;27.60;;;22.10;;
15616;SDS011;7908;51.688;7.130;2023-07-20T04:35:17;27.03;;;20.03;;
15616;SDS011;7908;51.688;7.130;2023-07-20T04:38:06;26.57;;;20.80;;
15616;SDS011;7908;51.688;7.130;2023-07-20T04:40:35;22.33;;;19.93;;
15616;SDS011;7908;51.688;7.130;2023-07-20T04:43:04;30.13;;;21.87;;
15616;SDS011;7908;51.688;7.130;2023-07-20T04:45:32;21.63;;;18.67;;
15616;SDS011;7908;51.688;7.130;2023-07-20T04:48:02;29.27;;;21.40;;
15616;SDS011;7908;51.688;7.130;2023-07-20T04:50:32;23.37;;;20.17;;
15616;SDS011;7908;51.688;7.130;2023-07-20T04:53:02;26.60;;;20.20;;
15616;SDS011;7908;51.688;7.130;2023-07-20T04:55:32;24.10;;;18.53;;
15616;SDS011;7908;51.688;7.130;2023-07-20T04:58:03;25.63;;;20.83;;
15616;SDS011;7908;51.688;7.130;2023-07-20T05:00:34;21.50;;;18.30;;
15616;SDS011;7908;51.688;7.130;2023-07-20T05:03:06;21.73;;;17.60;;
15616;SDS011;7908;51.688;7.130;2023-07-20T05:05:37;23.03;;;18.17;;
15616;SDS011;7908;51.688;7.130;2023-07-20T05:08:06;20.03;;;17.90;;
15616;SDS011;7908;51.688;7.130;2023-07-20T05:10:35;22.53;;;18.73;;
15616;SDS011;7908;51.688;7.130;2023-07-20T05:13:04;18.67;;;16.77;;
15616;SDS011;7908;51.688;7.130;2023-07-20T05:15:33;20.37;;;16.47;;
15616;SDS011;7908;51.688;7.130;2023-07-20T05:18:02;16.60;;;14.90;;
15616;SDS011;7908;51.688;7.130;2023-07-20T05:20:31;17.27;;;15.43;;
15616;SDS011;7908;51.688;7.130;2023-07-20T05:23:01;15.43;;;13.83;;
15616;SDS011;7908;51.688;7.130;2023-07-20T05:25:31;15.43;;;13.83;;
15616;SDS011;7908;51.688;7.130;2023-07-20T05:27:59;14.70;;;13.23;;
15616;SDS011;7908;51.688;7.130;2023-07-20T05:30:28;12.70;;;11.50;;
15616;SDS011;7908;51.688;7.130;2023-07-20T05:32:57;13.37;;;12.07;;
15616;SDS011;7908;51.688;7.130;2023-07-20T05:35:26;13.10;;;11.80;;
15616;SDS011;7908;51.688;7.130;2023-07-20T05:37:55;12.80;;;11.53;;
15616;SDS011;7908;51.688;7.130;2023-07-20T05:40:25;13.60;;;12.20;;
15616;SDS011;7908;51.688;7.130;2023-07-20T05:42:54;12.77;;;11.47;;
15616;SDS011;7908;51.688;7.130;2023-07-20T05:45:29;11.70;;;10.57;;
15616;SDS011;7908;51.688;7.130;2023-07-20T05:47:58;9.87;;;8.93;;
15616;SDS011;7908;51.688;7.130;2023-07-20T05:50:27;9.87;;;8.87;;
15616;SDS011;7908;51.688;7.130;2023-07-20T05:52:57;10.30;;;9.30;;
15616;SDS011;7908;51.688;7.130;2023-07-20T05:55:28;9.83;;;8.83;;
15616;SDS011;7908;51.688;7.130;2023-07-20T05:57:57;8.13;;;7.33;;
15616;SDS011;7908;51.688;7.130;2023-07-20T06:00:27;7.67;;;6.97;;
15616;SDS011;7908;51.688;7.130;2023-07-20T06:02:57;7.93;;;7.30;;
15616;SDS011;7908;51.688;7.130;2023-07-20T06:05:26;9.27;;;7.57;;
15616;SDS011;7908;51.688;7.130;2023-07-20T06:07:55;7.77;;;7.03;;
15616;SDS011;7908;51.688;7.130;2023-07-20T06:10:24;8.30;;;7.33;;
15616;SDS011;7908;51.688;7.130;2023-07-20T06:12:54;7.53;;;6.73;;
15616;SDS011;7908;51.688;7.130;2023-07-20T06:15:24;7.30;;;6.70;;
15616;SDS011;7908;51.688;7.130;2023-07-20T06:17:54;7.20;;;6.50;;
15616;SDS011;7908;51.688;7.130;2023-07-20T06:20:25;6.90;;;6.30;;
15616;SDS011;7908;51.688;7.130;2023-07-20T06:22:54;8.70;;;7.30;;
15616;SDS011;7908;51.688;7.130;2023-07-20T06:25:23;7.57;;;6.87;;
15616;SDS011;7908;51.688;7.130;2023-07-20T06:27:51;6.53;;;5.93;;
15616;SDS011;7908;51.688;7.130;2023-07-20T06:30:23;6.90;;;6.13;;
15616;SDS011;7908;51.688;7.130;2023-07-20T06:32:52;5.90;;;5.30;;
15616;SDS011;7908;51.688;7.130;2023-07-20T06:35:21;5.93;;;5.40;;
15616;SDS011;7908;51.688;7.130;2023-07-20T06:37:50;6.40;;;5.63;;
15616;SDS011;7908;51.688;7.130;2023-07-20T06:40:18;5.63;;;4.97;;
15616;SDS011;7908;51.688;7.130;2023-07-20T06:42:50;5.33;;;4.83;;
15616;SDS011;7908;51.688;7.130;2023-07-20T06:45:24;5.20;;;4.70;;
15616;SDS011;7908;51.688;7.130;2023-07-20T06:47:53;7.17;;;4.80;;
15616;SDS011;7908;51.688;7.130;2023-07-20T06:50:23;4.67;;;3.87;;
15616;SDS011;7908;51.688;7.130;2023-07-20T06:52:53;3.97;;;2.97;;
15616;SDS011;7908;51.688;7.130;2023-07-20T06:55:24;4.53;;;3.50;;
15616;SDS011;7908;51.688;7.130;2023-07-20T06:57:58;4.03;;;2.77;;
15616;SDS011;7908;51.688;7.130;2023-07-20T07:00:29;2.73;;;2.30;;
15616;SDS011;7908;51.688;7.130;2023-07-20T07:02:58;2.40;;;2.20;;
15616;SDS011;7908;51.688;7.130;2023-07-20T07:05:28;2.50;;;2.30;;
15616;SDS011;7908;51.688;7.130;2023-07-20T07:08:01;3.17;;;2.40;;
15616;SDS011;7908;51.688;7.130;2023-07-20T07:10:32;2.37;;;2.17;;
15616;SDS011;7908;51.688;7.130;2023-07-20T07:13:07;2.47;;;1.77;;
15616;SDS011;7908;51.688;7.130;2023-07-20T07:15:41;1.93;;;1.83;;
15616;SDS011;7908;51.688;7.130;2023-07-20T07:18:11;1.80;;;1.70;;
15616;SDS011;7908;51.688;7.130;2023-07-20T07:20:41;1.45;;;1.33;;
15616;SDS011;7908;51.688;7.130;2023-07-20T07:23:18;1.90;;;1.70;;
15616;SDS011;7908;51.688;7.130;2023-07-20T07:25:47;2.20;;;2.00;;
15616;SDS011;7908;51.688;7.130;2023-07-20T07:28:17;3.27;;;1.70;;
15616;SDS011;7908;51.688;7.130;2023-07-20T07:30:51;3.23;;;2.27;;
15616;SDS011;7908;51.688;7.130;2023-07-20T07:33:24;3.40;;;2.23;;
15616;SDS011;7908;51.688;7.130;2023-07-20T07:35:57;2.58;;;2.03;;
15616;SDS011;7908;51.688;7.130;2023-07-20T07:38:30;2.10;;;1.90;;
15616;SDS011;7908;51.688;7.130;2023-07-20T07:41:22;1.90;;;1.67;;
15616;SDS011;7908;51.688;7.130;2023-07-20T07:43:52;1.88;;;1.52;;
15616;SDS011;7908;51.688;7.130;2023-07-20T07:46:27;3.05;;;1.48;;
15616;SDS011;7908;51.688;7.130;2023-07-20T07:48:59;2.22;;;1.60;;
15616;SDS011;7908;51.688;7.130;2023-07-20T07:51:29;2.17;;;1.55;;
15616;SDS011;7908;51.688;7.130;2023-07-20T07:54:00;2.10;;;1.75;;
15616;SDS011;7908;51.688;7.130;2023-07-20T07:56:30;1.60;;;1.40;;
15616;SDS011;7908;51.688;7.130;2023-07-20T07:59:01;2.00;;;1.45;;
15616;SDS011;7908;51.688;7.130;2023-07-20T08:01:44;1.70;;;1.50;;
15616;SDS011;7908;51.688;7.130;2023-07-20T08:04:29;1.60;;;1.40;;
15616;SDS011;7908;51.688;7.130;2023-07-20T08:06:58;2.70;;;1.30;;
15616;SDS011;7908;51.688;7.130;2023-07-20T08:09:31;1.63;;;1.53;;
15616;SDS011;7908;51.688;7.130;2023-07-20T08:12:01;1.30;;;1.20;;
15616;SDS011;7908;51.688;7.130;2023-07-20T08:14:30;1.60;;;1.10;;
15616;SDS011;7908;51.688;7.130;2023-07-20T08:17:05;1.30;;;0.87;;
15616;SDS011;7908;51.688;7.130;2023-07-20T08:19:36;1.60;;;1.10;;
15616;SDS011;7908;51.688;7.130;2023-07-20T08:22:12;1.53;;;0.93;;
15616;SDS011;7908;51.688;7.130;2023-07-20T08:24:45;1.67;;;1.00;;
15616;SDS011;7908;51.688;7.130;2023-07-20T08:27:15;1.00;;;0.73;;
15616;SDS011;7908;51.688;7.130;2023-07-20T08:29:44;0.70;;;0.70;;
15616;SDS011;7908;51.688;7.130;2023-07-20T08:32:17;1.77;;;0.93;;
15616;SDS011;7908;51.688;7.130;2023-07-20T08:34:47;0.73;;;0.70;;
15616;SDS011;7908;51.688;7.130;2023-07-20T08:37:17;1.80;;;0.87;;
15616;SDS011;7908;51.688;7.130;2023-07-20T08:39:47;1.57;;;0.90;;
15616;SDS011;7908;51.688;7.130;2023-07-20T08:42:23;4.10;;;1.00;;
15616;SDS011;7908;51.688;7.130;2023-07-20T08:44:53;2.10;;;1.07;;
15616;SDS011;7908;51.688;7.130;2023-07-20T08:47:28;1.63;;;1.10;;
15616;SDS011;7908;51.688;7.130;2023-07-20T08:50:00;1.03;;;0.80;;
15616;SDS011;7908;51.688;7.130;2023-07-20T08:52:36;2.43;;;1.13;;
15616;SDS011;7908;51.688;7.130;2023-07-20T08:55:08;4.27;;;2.67;;
15616;SDS011;7908;51.688;7.130;2023-07-20T08:57:48;2.33;;;0.90;;
15616;SDS011;7908;51.688;7.130;2023-07-20T09:00:24;0.77;;;0.77;;
15616;SDS011;7908;51.688;7.130;2023-07-20T09:02:58;0.80;;;0.70;;
15616;SDS011;7908;51.688;7.130;2023-07-20T09:05:31;1.17;;;0.80;;
15616;SDS011;7908;51.688;7.130;2023-07-20T09:08:16;1.10;;;0.70;;
15616;SDS011;7908;51.688;7.130;2023-07-20T09:10:50;1.23;;;0.80;;
15616;SDS011;7908;51.688;7.130;2023-07-20T09:13:25;0.73;;;0.70;;
15616;SDS011;7908;51.688;7.130;2023-07-20T09:16:00;0.60;;;0.60;;
15616;SDS011;7908;51.688;7.130;2023-07-20T09:18:34;0.80;;;0.77;;
15616;SDS011;7908;51.688;7.130;2023-07-20T09:21:07;0.65;;;0.65;;
15616;SDS011;7908;51.688;7.130;2023-07-20T09:23:42;0.80;;;0.80;;
15616;SDS011;7908;51.688;7.130;2023-07-20T09:26:20;1.15;;;1.00;;
15616;SDS011;7908;51.688;7.130;2023-07-20T09:28:54;1.20;;;0.80;;
15616;SDS011;7908;51.688;7.130;2023-07-20T09:31:27;1.58;;;0.93;;
15616;SDS011;7908;51.688;7.130;2023-07-20T09:34:09;1.20;;;1.10;;
15616;SDS011;7908;51.688;7.130;2023-07-20T09:37:01;1.20;;;1.10;;
15616;SDS011;7908;51.688;7.130;2023-07-20T09:39:32;1.60;;;1.50;;
15616;SDS011;7908;51.688;7.130;2023-07-20T09:42:15;1.30;;;1.20;;
15616;SDS011;7908;51.688;7.130;2023-07-20T09:45:01;1.77;;;1.00;;
15616;SDS011;7908;51.688;7.130;2023-07-20T09:47:36;1.27;;;1.00;;
15616;SDS011;7908;51.688;7.130;2023-07-20T09:50:12;1.00;;;0.90;;
15616;SDS011;7908;51.688;7.130;2023-07-20T09:52:52;0.75;;;0.68;;
15616;SDS011;7908;51.688;7.130;2023-07-20T09:55:29;1.10;;;0.70;;
15616;SDS011;7908;51.688;7.130;2023-07-20T09:57:59;1.52;;;0.90;;
15616;SDS011;7908;51.688;7.130;2023-07-20T10:00:33;0.70;;;0.70;;
15616;SDS011;7908;51.688;7.130;2023-07-20T10:03:30;1.38;;;0.70;;
15616;SDS011;7908;51.688;7.130;2023-07-20T10:06:12;1.30;;;0.80;;
15616;SDS011;7908;51.688;7.130;2023-07-20T10:08:59;1.10;;;0.77;;
15616;SDS011;7908;51.688;7.130;2023-07-20T10:11:40;2.05;;;0.68;;
15616;SDS011;7908;51.688;7.130;2023-07-20T10:14:38;0.70;;;0.60;;
15616;SDS011;7908;51.688;7.130;2023-07-20T10:17:20;2.38;;;0.70;;
15616;SDS011;7908;51.688;7.130;2023-07-20T10:20:07;1.20;;;0.73;;
15616;SDS011;7908;51.688;7.130;2023-07-20T10:22:46;1.95;;;1.15;;
15616;SDS011;7908;51.688;7.130;2023-07-20T10:25:23;1.38;;;0.90;;
15616;SDS011;7908;51.688;7.130;2023-07-20T10:27:54;2.25;;;0.50;;
15616;SDS011;7908;51.688;7.130;2023-07-20T10:30:36;1.92;;;0.77;;
15616;SDS011;7908;51.688;7.130;2023-07-20T10:33:13;1.27;;;0.60;;
15616;SDS011;7908;51.688;7.130;2023-07-20T10:35:54;0.70;;;0.70;;
15616;SDS011;7908;51.688;7.130;2023-07-20T10:38:52;1.17;;;0.83;;
15616;SDS011;7908;51.688;7.130;2023-07-20T10:41:33;0.90;;;0.60;;
15616;SDS011;7908;51.688;7.130;2023-07-20T10:44:14;0.77;;;0.57;;
15616;SDS011;7908;51.688;7.130;2023-07-20T10:46:52;1.80;;;0.52;;
15616;SDS011;7908;51.688;7.130;2023-07-20T10:52:50;0.82;;;0.65;;
15616;SDS011;7908;51.688;7.130;2023-07-20T10:55:51;1.05;;;0.70;;
15616;SDS011;7908;51.688;7.130;2023-07-20T10:58:39;0.73;;;0.60;;
15616;SDS011;7908;51.688;7.130;2023-07-20T11:01:14;1.02;;;0.60;;
15616;SDS011;7908;51.688;7.130;2023-07-20T11:03:48;0.50;;;0.50;;
15616;SDS011;7908;51.688;7.130;2023-07-20T11:06:30;2.45;;;0.55;;
15616;SDS011;7908;51.688;7.130;2023-07-20T11:09:08;0.63;;;0.50;;
15616;SDS011;7908;51.688;7.130;2023-07-20T11:11:46;0.65;;;0.45;;
15616;SDS011;7908;51.688;7.130;2023-07-20T11:14:28;2.63;;;0.80;;
15616;SDS011;7908;51.688;7.130;2023-07-20T11:17:15;0.60;;;0.45;;
15616;SDS011;7908;51.688;7.130;2023-07-20T11:19:58;1.60;;;0.70;;
15616;SDS011;7908;51.688;7.130;2023-07-20T11:22:42;1.70;;;0.65;;
15616;SDS011;7908;51.688;7.130;2023-07-20T11:25:17;0.82;;;0.60;;
15616;SDS011;7908;51.688;7.130;2023-07-20T11:27:56;0.90;;;0.47;;
15616;SDS011;7908;51.688;7.130;2023-07-20T11:30:40;0.98;;;0.50;;
15616;SDS011;7908;51.688;7.130;2023-07-20T11:33:15;1.23;;;0.50;;
15616;SDS011;7908;51.688;7.130;2023-07-20T11:35:53;0.45;;;0.30;;
15616;SDS011;7908;51.688;7.130;2023-07-20T11:38:27;1.27;;;0.90;;
15616;SDS011;7908;51.688;7.130;2023-07-20T11:41:08;0.52;;;0.52;;
15616;SDS011;7908;51.688;7.130;2023-07-20T11:43:45;0.40;;;0.40;;
15616;SDS011;7908;51.688;7.130;2023-07-20T11:46:19;0.65;;;0.40;;
15616;SDS011;7908;51.688;7.130;2023-07-20T11:48:55;0.43;;;0.40;;
15616;SDS011;7908;51.688;7.130;2023-07-20T11:51:28;1.08;;;0.60;;
15616;SDS011;7908;51.688;7.130;2023-07-20T11:54:03;0.95;;;0.50;;
15616;SDS011;7908;51.688;7.130;2023-07-20T11:56:41;0.80;;;0.40;;
15616;SDS011;7908;51.688;7.130;2023-07-20T11:59:21;1.00;;;0.40;;
15616;SDS011;7908;51.688;7.130;2023-07-20T12:01:57;1.75;;;0.50;;
15616;SDS011;7908;51.688;7.130;2023-07-20T12:04:31;0.70;;;0.60;;
15616;SDS011;7908;51.688;7.130;2023-07-20T12:07:07;0.68;;;0.50;;
15616;SDS011;7908;51.688;7.130;2023-07-20T12:09:37;1.08;;;0.60;;
15616;SDS011;7908;51.688;7.130;2023-07-20T12:12:18;0.47;;;0.40;;
15616;SDS011;7908;51.688;7.130;2023-07-20T12:14:50;0.63;;;0.30;;
15616;SDS011;7908;51.688;7.130;2023-07-20T12:17:19;0.80;;;0.45;;
15616;SDS011;7908;51.688;7.130;2023-07-20T12:19:50;0.90;;;0.40;;
15616;SDS011;7908;51.688;7.130;2023-07-20T12:22:44;0.30;;;0.30;;
15616;SDS011;7908;51.688;7.130;2023-07-20T12:25:17;0.60;;;0.40;;
15616;SDS011;7908;51.688;7.130;2023-07-20T12:27:49;2.63;;;0.50;;
15616;SDS011;7908;51.688;7.130;2023-07-20T12:30:25;0.73;;;0.50;;
15616;SDS011;7908;51.688;7.130;2023-07-20T12:32:58;1.05;;;0.60;;
15616;SDS011;7908;51.688;7.130;2023-07-20T12:35:32;1.75;;;0.32;;
15616;SDS011;7908;51.688;7.130;2023-07-20T12:38:13;0.57;;;0.40;;
15616;SDS011;7908;51.688;7.130;2023-07-20T12:40:43;0.50;;;0.50;;
15616;SDS011;7908;51.688;7.130;2023-07-20T12:43:13;0.85;;;0.50;;
15616;SDS011;7908;51.688;7.130;2023-07-20T12:45:59;1.23;;;0.50;;
15616;SDS011;7908;51.688;7.130;2023-07-20T12:48:31;0.70;;;0.60;;
15616;SDS011;7908;51.688;7.130;2023-07-20T12:51:12;0.85;;;0.43;;
15616;SDS011;7908;51.688;7.130;2023-07-20T12:53:50;0.73;;;0.50;;
15616;SDS011;7908;51.688;7.130;2023-07-20T12:56:23;1.38;;;0.60;;
15616;SDS011;7908;51.688;7.130;2023-07-20T12:58:59;0.85;;;0.50;;
15616;SDS011;7908;51.688;7.130;2023-07-20T13:01:45;0.82;;;0.60;;
15616;SDS011;7908;51.688;7.130;2023-07-20T13:04:19;0.75;;;0.52;;
15616;SDS011;7908;51.688;7.130;2023-07-20T13:06:51;1.70;;;0.57;;
15616;SDS011;7908;51.688;7.130;2023-07-20T13:09:22;0.40;;;0.40;;
15616;SDS011;7908;51.688;7.130;2023-07-20T13:11:57;0.80;;;0.50;;
15616;SDS011;7908;51.688;7.130;2023-07-20T13:14:33;1.30;;;0.70;;
15616;SDS011;7908;51.688;7.130;2023-07-20T13:17:23;0.50;;;0.50;;
